createdAt,value
2022-12-01T09:19:16.857Z,91250.17
2022-12-01T09:27:43.806Z,91261.10
2022-12-01T09:36:08.269Z,91266.52
2022-12-01T09:44:52.873Z,91257.58
2022-12-01T09:53:20.035Z,91245.81
2022-12-01T10:01:45.248Z,91233.64
2022-12-01T10:10:14.655Z,91242.16
2022-12-01T10:19:05.312Z,91264.00
2022-12-01T10:27:55.084Z,91256.59
2022-12-01T10:36:16.597Z,91244.43
2022-12-01T10:44:39.571Z,91235.14
2022-12-01T10:53:02.016Z,91242.73
2022-12-01T11:01:30.418Z,91227.15
2022-12-01T11:10:13.700Z,91228.58
2022-12-01T11:18:38.146Z,91214.88
2022-12-01T11:27:00.283Z,91201.93
2022-12-01T11:35:25.638Z,91187.32
2022-12-01T11:43:56.697Z,91161.83
2022-12-01T11:52:30.540Z,91108.13
2022-12-01T12:00:56.919Z,91056.91
2022-12-01T12:09:46.058Z,91015.45
2022-12-01T12:18:23.061Z,90991.21
2022-12-01T12:26:54.003Z,90966.58
2022-12-01T12:35:42.879Z,90949.95
2022-12-01T12:44:35.346Z,90929.66
2022-12-01T12:53:09.251Z,90926.81
2022-12-01T13:01:39.062Z,90917.15
2022-12-01T13:10:15.896Z,90895.31
2022-12-01T13:18:44.528Z,90873.73
2022-12-01T13:27:16.354Z,90873.64
2022-12-01T13:35:39.383Z,90862.80
2022-12-01T13:44:03.137Z,90857.78
2022-12-01T13:52:31.269Z,90856.70
2022-12-01T14:00:52.962Z,90851.45
2022-12-01T14:09:44.436Z,90878.02
2022-12-01T14:18:18.077Z,90878.45
2022-12-01T14:26:45.186Z,90871.67
2022-12-01T14:35:13.281Z,90877.14
2022-12-01T14:43:54.327Z,90853.61
2022-12-01T14:53:08.490Z,90841.98
2022-12-01T15:01:33.742Z,90795.34
2022-12-01T15:10:01.132Z,90752.77
2022-12-01T15:18:30.613Z,90721.88
2022-12-01T15:26:59.096Z,90692.57
2022-12-01T15:35:23.881Z,90683.34
2022-12-01T15:43:58.453Z,90674.38
2022-12-01T15:52:21.405Z,90646.79
2022-12-01T16:01:08.052Z,90629.67
2022-12-01T16:09:53.757Z,90607.05
2022-12-01T16:18:31.054Z,90605.19
2022-12-01T16:26:54.059Z,90591.27
2022-12-01T16:35:25.924Z,90575.77
2022-12-01T16:44:12.614Z,90569.38
2022-12-01T16:52:46.322Z,90555.55
2022-12-01T17:01:07.896Z,90542.68
2022-12-01T17:09:29.612Z,90525.84
2022-12-01T17:17:51.198Z,90489.59
2022-12-01T17:26:16.729Z,90461.20
2022-12-01T17:34:38.251Z,90447.35
2022-12-01T17:42:59.763Z,90430.83
2022-12-01T17:51:21.626Z,90422.96
2022-12-01T17:59:43.326Z,90406.22
2022-12-01T18:08:05.094Z,90389.55
2022-12-01T18:16:30.000Z,90361.90
2022-12-01T18:24:52.249Z,90348.21
2022-12-01T18:33:14.302Z,90348.79
2022-12-01T18:41:36.388Z,90354.09
2022-12-01T18:49:57.991Z,90363.60
2022-12-01T18:58:19.453Z,90341.13
2022-12-01T19:06:42.437Z,90307.33
2022-12-01T19:15:04.412Z,90294.27
2022-12-01T19:23:26.059Z,90297.41
2022-12-01T19:31:47.657Z,90286.12
2022-12-01T19:40:09.621Z,90265.66
2022-12-01T19:48:31.143Z,90252.70
2022-12-01T19:56:52.569Z,90270.03
2022-12-01T20:05:14.952Z,90298.06
2022-12-01T20:13:39.319Z,90300.59
2022-12-01T20:22:00.808Z,90321.27
2022-12-01T20:30:22.278Z,90336.60
2022-12-01T20:38:44.006Z,90339.44
2022-12-01T20:47:05.800Z,90360.94
2022-12-01T20:55:27.250Z,90392.59
2022-12-01T21:03:50.352Z,90385.98
2022-12-01T21:12:35.175Z,90376.84
2022-12-01T21:21:03.983Z,90393.00
2022-12-01T21:29:38.645Z,90384.98
2022-12-01T21:38:03.830Z,90346.96
2022-12-01T21:46:26.640Z,90327.48
2022-12-01T21:54:50.581Z,90285.98
2022-12-01T22:03:39.158Z,90243.55
2022-12-01T22:12:09.934Z,90220.31
2022-12-01T22:20:31.436Z,90225.30
2022-12-01T22:28:57.423Z,90229.30
2022-12-01T22:37:22.826Z,90225.60
2022-12-01T22:45:56.664Z,90248.23
2022-12-01T22:54:27.520Z,90243.04
2022-12-01T23:02:51.626Z,90209.71
2022-12-01T23:11:13.198Z,90178.20
2022-12-01T23:19:34.870Z,90139.71
2022-12-01T23:28:06.988Z,90128.41
2022-12-01T23:36:29.246Z,90123.33
2022-12-01T23:44:51.534Z,90126.63
2022-12-01T23:53:24.649Z,90131.19
